sensor_id;sensor_type;location;lat;lon;timestamp;P1;P2;P0
60816;PMS5003;51921;51.518;-3.188;2023-05-29T00:00:25;11;9;
60816;PMS5003;51921;51.518;-3.188;2023-05-29T00:02:50;11;11;
60816;PMS5003;51921;51.518;-3.188;2023-05-29T00:05:15;9;9;
60816;PMS5003;51921;51.518;-3.188;2023-05-29T00:07:41;11;11;
60816;PMS5003;51921;51.518;-3.188;2023-05-29T00:10:07;11;11;
60816;PMS5003;51921;51.518;-3.188;2023-05-29T00:12:32;14;11;
60816;PMS5003;51921;51.518;-3.188;2023-05-29T00:14:57;15;14;
60816;PMS5003;51921;51.518;-3.188;2023-05-29T00:17:23;15;12;
60816;PMS5003;51921;51.518;-3.188;2023-05-29T00:19:48;12;10;
60816;PMS5003;51921;51.518;-3.188;2023-05-29T00:22:14;12;10;
60816;PMS5003;51921;51.518;-3.188;2023-05-29T00:24:39;13;13;
60816;PMS5003;51921;51.518;-3.188;2023-05-29T00:27:05;10;9;
60816;PMS5003;51921;51.518;-3.188;2023-05-29T00:29:30;9;8;
60816;PMS5003;51921;51.518;-3.188;2023-05-29T00:31:56;13;12;
60816;PMS5003;51921;51.518;-3.188;2023-05-29T00:34:21;12;12;
60816;PMS5003;51921;51.518;-3.188;2023-05-29T00:36:46;12;10;
60816;PMS5003;51921;51.518;-3.188;2023-05-29T00:39:12;10;10;
60816;PMS5003;51921;51.518;-3.188;2023-05-29T00:41:37;10;10;
60816;PMS5003;51921;51.518;-3.188;2023-05-29T00:44:03;11;11;
60816;PMS5003;51921;51.518;-3.188;2023-05-29T00:46:29;13;11;
60816;PMS5003;51921;51.518;-3.188;2023-05-29T00:48:54;12;9;
60816;PMS5003;51921;51.518;-3.188;2023-05-29T00:51:20;12;11;
60816;PMS5003;51921;51.518;-3.188;2023-05-29T00:53:45;14;11;
60816;PMS5003;51921;51.518;-3.188;2023-05-29T00:56:11;12;9;
60816;PMS5003;51921;51.518;-3.188;2023-05-29T00:58:36;10;10;
60816;PMS5003;51921;51.518;-3.188;2023-05-29T01:01:02;15;13;
60816;PMS5003;51921;51.518;-3.188;2023-05-29T01:03:27;11;10;
60816;PMS5003;51921;51.518;-3.188;2023-05-29T01:05:53;12;11;
60816;PMS5003;51921;51.518;-3.188;2023-05-29T01:08:18;13;10;
60816;PMS5003;51921;51.518;-3.188;2023-05-29T01:10:43;11;9;
60816;PMS5003;51921;51.518;-3.188;2023-05-29T01:13:10;12;10;
60816;PMS5003;51921;51.518;-3.188;2023-05-29T01:15:36;11;10;
60816;PMS5003;51921;51.518;-3.188;2023-05-29T01:18:05;11;10;
60816;PMS5003;51921;51.518;-3.188;2023-05-29T01:20:27;15;14;
60816;PMS5003;51921;51.518;-3.188;2023-05-29T01:22:58;10;7;
60816;PMS5003;51921;51.518;-3.188;2023-05-29T01:25:18;9;9;
60816;PMS5003;51921;51.518;-3.188;2023-05-29T01:27:42;8;6;
60816;PMS5003;51921;51.518;-3.188;2023-05-29T01:30:07;10;10;
60816;PMS5003;51921;51.518;-3.188;2023-05-29T01:32:33;9;8;
60816;PMS5003;51921;51.518;-3.188;2023-05-29T01:34:58;8;7;
60816;PMS5003;51921;51.518;-3.188;2023-05-29T01:37:24;9;8;
60816;PMS5003;51921;51.518;-3.188;2023-05-29T01:39:49;9;7;
60816;PMS5003;51921;51.518;-3.188;2023-05-29T01:42:15;6;6;
60816;PMS5003;51921;51.518;-3.188;2023-05-29T01:44:40;9;7;
60816;PMS5003;51921;51.518;-3.188;2023-05-29T01:47:06;11;8;
60816;PMS5003;51921;51.518;-3.188;2023-05-29T01:49:31;6;6;
60816;PMS5003;51921;51.518;-3.188;2023-05-29T01:51:57;7;5;
60816;PMS5003;51921;51.518;-3.188;2023-05-29T01:54:22;10;8;
60816;PMS5003;51921;51.518;-3.188;2023-05-29T01:56:48;4;4;
60816;PMS5003;51921;51.518;-3.188;2023-05-29T01:59:13;5;5;
60816;PMS5003;51921;51.518;-3.188;2023-05-29T02:01:39;9;8;
60816;PMS5003;51921;51.518;-3.188;2023-05-29T02:04:04;6;6;
60816;PMS5003;51921;51.518;-3.188;2023-05-29T02:06:30;7;6;
60816;PMS5003;51921;51.518;-3.188;2023-05-29T02:08:55;6;6;
60816;PMS5003;51921;51.518;-3.188;2023-05-29T02:11:21;11;7;
60816;PMS5003;51921;51.518;-3.188;2023-05-29T02:13:46;7;7;
60816;PMS5003;51921;51.518;-3.188;2023-05-29T02:16:12;9;7;
60816;PMS5003;51921;51.518;-3.188;2023-05-29T02:18:37;6;4;
60816;PMS5003;51921;51.518;-3.188;2023-05-29T02:21:02;6;5;
60816;PMS5003;51921;51.518;-3.188;2023-05-29T02:23:28;6;6;
60816;PMS5003;51921;51.518;-3.188;2023-05-29T02:25:53;5;5;
60816;PMS5003;51921;51.518;-3.188;2023-05-29T02:28:19;5;4;
60816;PMS5003;51921;51.518;-3.188;2023-05-29T02:30:44;6;6;
60816;PMS5003;51921;51.518;-3.188;2023-05-29T02:33:10;4;4;
60816;PMS5003;51921;51.518;-3.188;2023-05-29T02:35:35;4;3;
60816;PMS5003;51921;51.518;-3.188;2023-05-29T02:38:01;8;5;
60816;PMS5003;51921;51.518;-3.188;2023-05-29T02:40:26;7;5;
60816;PMS5003;51921;51.518;-3.188;2023-05-29T02:42:52;8;7;
60816;PMS5003;51921;51.518;-3.188;2023-05-29T02:45:17;5;4;
60816;PMS5003;51921;51.518;-3.188;2023-05-29T02:47:43;6;5;
60816;PMS5003;51921;51.518;-3.188;2023-05-29T02:50:09;6;6;
60816;PMS5003;51921;51.518;-3.188;2023-05-29T02:52:34;4;4;
60816;PMS5003;51921;51.518;-3.188;2023-05-29T02:54:59;4;4;
60816;PMS5003;51921;51.518;-3.188;2023-05-29T02:57:25;7;5;
60816;PMS5003;51921;51.518;-3.188;2023-05-29T02:59:50;8;5;
60816;PMS5003;51921;51.518;-3.188;2023-05-29T03:02:16;4;4;
60816;PMS5003;51921;51.518;-3.188;2023-05-29T03:04:42;7;6;
60816;PMS5003;51921;51.518;-3.188;2023-05-29T03:07:07;4;4;
60816;PMS5003;51921;51.518;-3.188;2023-05-29T03:09:33;5;4;
60816;PMS5003;51921;51.518;-3.188;2023-05-29T03:11:58;8;7;
60816;PMS5003;51921;51.518;-3.188;2023-05-29T03:14:24;8;6;
60816;PMS5003;51921;51.518;-3.188;2023-05-29T03:16:49;4;4;
60816;PMS5003;51921;51.518;-3.188;2023-05-29T03:19:15;3;3;
60816;PMS5003;51921;51.518;-3.188;2023-05-29T03:21:41;6;5;
60816;PMS5003;51921;51.518;-3.188;2023-05-29T03:24:06;9;6;
60816;PMS5003;51921;51.518;-3.188;2023-05-29T03:26:32;5;5;
60816;PMS5003;51921;51.518;-3.188;2023-05-29T03:28:57;7;5;
60816;PMS5003;51921;51.518;-3.188;2023-05-29T03:31:23;6;6;
60816;PMS5003;51921;51.518;-3.188;2023-05-29T03:33:48;5;4;
60816;PMS5003;51921;51.518;-3.188;2023-05-29T03:36:14;7;5;
60816;PMS5003;51921;51.518;-3.188;2023-05-29T03:38:39;6;5;
60816;PMS5003;51921;51.518;-3.188;2023-05-29T03:41:05;6;6;
60816;PMS5003;51921;51.518;-3.188;2023-05-29T03:43:31;6;4;
60816;PMS5003;51921;51.518;-3.188;2023-05-29T03:45:56;6;5;
60816;PMS5003;51921;51.518;-3.188;2023-05-29T03:48:22;8;6;
60816;PMS5003;51921;51.518;-3.188;2023-05-29T03:50:47;3;3;
60816;PMS5003;51921;51.518;-3.188;2023-05-29T03:53:13;9;8;
60816;PMS5003;51921;51.518;-3.188;2023-05-29T03:55:38;4;4;
60816;PMS5003;51921;51.518;-3.188;2023-05-29T03:58:04;6;6;
60816;PMS5003;51921;51.518;-3.188;2023-05-29T04:00:29;5;5;
60816;PMS5003;51921;51.518;-3.188;2023-05-29T04:02:55;5;5;
60816;PMS5003;51921;51.518;-3.188;2023-05-29T04:05:21;9;7;
60816;PMS5003;51921;51.518;-3.188;2023-05-29T04:07:46;7;5;
60816;PMS5003;51921;51.518;-3.188;2023-05-29T04:10:12;7;6;
60816;PMS5003;51921;51.518;-3.188;2023-05-29T04:12:37;5;5;
60816;PMS5003;51921;51.518;-3.188;2023-05-29T04:15:03;6;5;
60816;PMS5003;51921;51.518;-3.188;2023-05-29T04:17:28;6;6;
60816;PMS5003;51921;51.518;-3.188;2023-05-29T04:19:54;6;5;
60816;PMS5003;51921;51.518;-3.188;2023-05-29T04:22:19;6;6;
60816;PMS5003;51921;51.518;-3.188;2023-05-29T04:24:45;6;6;
60816;PMS5003;51921;51.518;-3.188;2023-05-29T04:27:11;4;4;
60816;PMS5003;51921;51.518;-3.188;2023-05-29T04:29:36;10;6;
60816;PMS5003;51921;51.518;-3.188;2023-05-29T04:32:02;6;6;
60816;PMS5003;51921;51.518;-3.188;2023-05-29T04:34:27;8;6;
60816;PMS5003;51921;51.518;-3.188;2023-05-29T04:36:53;6;5;
60816;PMS5003;51921;51.518;-3.188;2023-05-29T04:39:18;7;5;
60816;PMS5003;51921;51.518;-3.188;2023-05-29T04:41:44;4;4;
60816;PMS5003;51921;51.518;-3.188;2023-05-29T04:44:09;3;3;
60816;PMS5003;51921;51.518;-3.188;2023-05-29T04:46:35;5;4;
60816;PMS5003;51921;51.518;-3.188;2023-05-29T04:49:01;5;5;
60816;PMS5003;51921;51.518;-3.188;2023-05-29T04:51:26;5;4;
60816;PMS5003;51921;51.518;-3.188;2023-05-29T04:53:52;9;7;
60816;PMS5003;51921;51.518;-3.188;2023-05-29T04:56:17;7;6;
60816;PMS5003;51921;51.518;-3.188;2023-05-29T04:58:43;5;5;
60816;PMS5003;51921;51.518;-3.188;2023-05-29T05:01:08;5;5;
60816;PMS5003;51921;51.518;-3.188;2023-05-29T05:03:34;8;7;
60816;PMS5003;51921;51.518;-3.188;2023-05-29T05:05:59;5;5;
60816;PMS5003;51921;51.518;-3.188;2023-05-29T05:08:24;6;6;
60816;PMS5003;51921;51.518;-3.188;2023-05-29T05:10:50;7;5;
60816;PMS5003;51921;51.518;-3.188;2023-05-29T05:13:16;4;4;
60816;PMS5003;51921;51.518;-3.188;2023-05-29T05:15:41;5;5;
60816;PMS5003;51921;51.518;-3.188;2023-05-29T05:18:07;6;5;
60816;PMS5003;51921;51.518;-3.188;2023-05-29T05:20:32;6;5;
60816;PMS5003;51921;51.518;-3.188;2023-05-29T05:22:58;6;6;
60816;PMS5003;51921;51.518;-3.188;2023-05-29T05:25:24;5;4;
60816;PMS5003;51921;51.518;-3.188;2023-05-29T05:27:49;6;5;
60816;PMS5003;51921;51.518;-3.188;2023-05-29T05:30:14;9;7;
60816;PMS5003;51921;51.518;-3.188;2023-05-29T05:32:40;6;6;
60816;PMS5003;51921;51.518;-3.188;2023-05-29T05:35:06;8;6;
60816;PMS5003;51921;51.518;-3.188;2023-05-29T05:37:31;6;6;
60816;PMS5003;51921;51.518;-3.188;2023-05-29T05:39:57;6;5;
60816;PMS5003;51921;51.518;-3.188;2023-05-29T05:42:22;5;5;
60816;PMS5003;51921;51.518;-3.188;2023-05-29T05:44:48;6;4;
60816;PMS5003;51921;51.518;-3.188;2023-05-29T05:47:13;6;5;
60816;PMS5003;51921;51.518;-3.188;2023-05-29T05:49:38;5;4;
60816;PMS5003;51921;51.518;-3.188;2023-05-29T05:52:04;5;4;
60816;PMS5003;51921;51.518;-3.188;2023-05-29T05:54:29;5;4;
60816;PMS5003;51921;51.518;-3.188;2023-05-29T05:56:54;6;5;
60816;PMS5003;51921;51.518;-3.188;2023-05-29T05:59:20;5;5;
60816;PMS5003;51921;51.518;-3.188;2023-05-29T06:01:45;9;8;
60816;PMS5003;51921;51.518;-3.188;2023-05-29T06:04:11;5;4;
60816;PMS5003;51921;51.518;-3.188;2023-05-29T06:06:36;5;5;
60816;PMS5003;51921;51.518;-3.188;2023-05-29T06:09:02;5;5;
60816;PMS5003;51921;51.518;-3.188;2023-05-29T06:11:27;5;4;
60816;PMS5003;51921;51.518;-3.188;2023-05-29T06:13:53;6;6;
60816;PMS5003;51921;51.518;-3.188;2023-05-29T06:16:19;5;5;
60816;PMS5003;51921;51.518;-3.188;2023-05-29T06:18:44;8;7;
60816;PMS5003;51921;51.518;-3.188;2023-05-29T06:21:11;5;4;
60816;PMS5003;51921;51.518;-3.188;2023-05-29T06:23:35;7;5;
60816;PMS5003;51921;51.518;-3.188;2023-05-29T06:26:00;7;6;
60816;PMS5003;51921;51.518;-3.188;2023-05-29T06:28:26;7;6;
60816;PMS5003;51921;51.518;-3.188;2023-05-29T06:30:52;4;3;
60816;PMS5003;51921;51.518;-3.188;2023-05-29T06:33:17;5;4;
60816;PMS5003;51921;51.518;-3.188;2023-05-29T06:35:42;6;6;
60816;PMS5003;51921;51.518;-3.188;2023-05-29T06:38:08;6;6;
60816;PMS5003;51921;51.518;-3.188;2023-05-29T06:40:34;6;5;
60816;PMS5003;51921;51.518;-3.188;2023-05-29T06:42:59;6;4;
60816;PMS5003;51921;51.518;-3.188;2023-05-29T06:45:24;6;5;
60816;PMS5003;51921;51.518;-3.188;2023-05-29T06:47:50;5;4;
60816;PMS5003;51921;51.518;-3.188;2023-05-29T06:50:16;4;4;
60816;PMS5003;51921;51.518;-3.188;2023-05-29T06:52:41;5;5;
60816;PMS5003;51921;51.518;-3.188;2023-05-29T06:55:06;6;5;
60816;PMS5003;51921;51.518;-3.188;2023-05-29T06:57:32;7;5;
60816;PMS5003;51921;51.518;-3.188;2023-05-29T06:59:57;4;4;
60816;PMS5003;51921;51.518;-3.188;2023-05-29T07:02:23;6;5;
60816;PMS5003;51921;51.518;-3.188;2023-05-29T07:04:49;6;5;
60816;PMS5003;51921;51.518;-3.188;2023-05-29T07:07:14;4;4;
60816;PMS5003;51921;51.518;-3.188;2023-05-29T07:09:40;4;4;
60816;PMS5003;51921;51.518;-3.188;2023-05-29T07:12:05;6;4;
60816;PMS5003;51921;51.518;-3.188;2023-05-29T07:14:31;6;6;
60816;PMS5003;51921;51.518;-3.188;2023-05-29T07:16:56;6;4;
60816;PMS5003;51921;51.518;-3.188;2023-05-29T07:19:22;6;6;
60816;PMS5003;51921;51.518;-3.188;2023-05-29T07:21:47;5;4;
60816;PMS5003;51921;51.518;-3.188;2023-05-29T07:24:13;3;3;
60816;PMS5003;51921;51.518;-3.188;2023-05-29T07:26:38;5;5;
60816;PMS5003;51921;51.518;-3.188;2023-05-29T07:29:04;6;5;
60816;PMS5003;51921;51.518;-3.188;2023-05-29T07:31:29;5;5;
60816;PMS5003;51921;51.518;-3.188;2023-05-29T07:33:54;5;4;
60816;PMS5003;51921;51.518;-3.188;2023-05-29T07:36:20;3;3;
60816;PMS5003;51921;51.518;-3.188;2023-05-29T07:38:45;4;4;
60816;PMS5003;51921;51.518;-3.188;2023-05-29T07:41:11;8;6;
60816;PMS5003;51921;51.518;-3.188;2023-05-29T07:43:36;3;2;
60816;PMS5003;51921;51.518;-3.188;2023-05-29T07:46:02;3;3;
60816;PMS5003;51921;51.518;-3.188;2023-05-29T07:48:27;6;4;
60816;PMS5003;51921;51.518;-3.188;2023-05-29T07:50:53;4;4;
60816;PMS5003;51921;51.518;-3.188;2023-05-29T07:53:18;3;3;
60816;PMS5003;51921;51.518;-3.188;2023-05-29T07:55:44;5;4;
60816;PMS5003;51921;51.518;-3.188;2023-05-29T07:58:09;4;4;
60816;PMS5003;51921;51.518;-3.188;2023-05-29T08:00:35;4;3;
60816;PMS5003;51921;51.518;-3.188;2023-05-29T08:03:00;5;5;
60816;PMS5003;51921;51.518;-3.188;2023-05-29T08:05:26;6;5;
60816;PMS5003;51921;51.518;-3.188;2023-05-29T08:07:51;5;5;
60816;PMS5003;51921;51.518;-3.188;2023-05-29T08:10:17;5;4;
60816;PMS5003;51921;51.518;-3.188;2023-05-29T08:12:42;4;4;
60816;PMS5003;51921;51.518;-3.188;2023-05-29T08:15:08;3;3;
60816;PMS5003;51921;51.518;-3.188;2023-05-29T08:17:33;3;3;
60816;PMS5003;51921;51.518;-3.188;2023-05-29T08:19:59;5;5;
60816;PMS5003;51921;51.518;-3.188;2023-05-29T08:22:27;3;3;
60816;PMS5003;51921;51.518;-3.188;2023-05-29T08:24:50;7;5;
60816;PMS5003;51921;51.518;-3.188;2023-05-29T08:27:15;4;3;
60816;PMS5003;51921;51.518;-3.188;2023-05-29T08:29:41;5;4;
60816;PMS5003;51921;51.518;-3.188;2023-05-29T08:32:06;3;3;
60816;PMS5003;51921;51.518;-3.188;2023-05-29T08:34:32;4;4;
60816;PMS5003;51921;51.518;-3.188;2023-05-29T08:36:57;3;3;
60816;PMS5003;51921;51.518;-3.188;2023-05-29T08:39:23;6;5;
60816;PMS5003;51921;51.518;-3.188;2023-05-29T08:41:50;5;3;
60816;PMS5003;51921;51.518;-3.188;2023-05-29T08:44:14;6;5;
60816;PMS5003;51921;51.518;-3.188;2023-05-29T08:46:39;4;4;
60816;PMS5003;51921;51.518;-3.188;2023-05-29T08:49:05;5;4;
60816;PMS5003;51921;51.518;-3.188;2023-05-29T08:51:31;5;4;
60816;PMS5003;51921;51.518;-3.188;2023-05-29T08:53:56;4;4;
60816;PMS5003;51921;51.518;-3.188;2023-05-29T08:56:21;4;4;
60816;PMS5003;51921;51.518;-3.188;2023-05-29T08:58:47;4;4;
60816;PMS5003;51921;51.518;-3.188;2023-05-29T09:01:12;3;3;
60816;PMS5003;51921;51.518;-3.188;2023-05-29T09:03:38;3;2;
60816;PMS5003;51921;51.518;-3.188;2023-05-29T09:06:03;5;4;
60816;PMS5003;51921;51.518;-3.188;2023-05-29T09:08:29;5;3;
60816;PMS5003;51921;51.518;-3.188;2023-05-29T09:10:54;5;5;
60816;PMS5003;51921;51.518;-3.188;2023-05-29T09:13:20;4;4;
60816;PMS5003;51921;51.518;-3.188;2023-05-29T09:15:45;8;7;
60816;PMS5003;51921;51.518;-3.188;2023-05-29T09:18:11;4;4;
60816;PMS5003;51921;51.518;-3.188;2023-05-29T09:20:36;5;4;
60816;PMS5003;51921;51.518;-3.188;2023-05-29T09:23:03;5;5;
60816;PMS5003;51921;51.518;-3.188;2023-05-29T09:25:27;4;4;
60816;PMS5003;51921;51.518;-3.188;2023-05-29T09:27:54;3;3;
60816;PMS5003;51921;51.518;-3.188;2023-05-29T09:32:44;5;5;
60816;PMS5003;51921;51.518;-3.188;2023-05-29T09:35:09;8;6;
60816;PMS5003;51921;51.518;-3.188;2023-05-29T09:37:35;5;4;
60816;PMS5003;51921;51.518;-3.188;2023-05-29T09:40:00;5;5;
60816;PMS5003;51921;51.518;-3.188;2023-05-29T09:42:25;7;6;
60816;PMS5003;51921;51.518;-3.188;2023-05-29T09:44:51;7;7;
60816;PMS5003;51921;51.518;-3.188;2023-05-29T09:47:17;5;5;
60816;PMS5003;51921;51.518;-3.188;2023-05-29T09:49:42;5;5;
60816;PMS5003;51921;51.518;-3.188;2023-05-29T09:52:08;6;5;
60816;PMS5003;51921;51.518;-3.188;2023-05-29T09:54:34;5;5;
60816;PMS5003;51921;51.518;-3.188;2023-05-29T09:56:58;5;5;
60816;PMS5003;51921;51.518;-3.188;2023-05-29T09:59:24;5;5;
60816;PMS5003;51921;51.518;-3.188;2023-05-29T10:01:54;6;5;
60816;PMS5003;51921;51.518;-3.188;2023-05-29T10:04:15;6;5;
60816;PMS5003;51921;51.518;-3.188;2023-05-29T10:06:41;4;4;
60816;PMS5003;51921;51.518;-3.188;2023-05-29T10:09:07;4;4;
60816;PMS5003;51921;51.518;-3.188;2023-05-29T10:11:31;5;5;
60816;PMS5003;51921;51.518;-3.188;2023-05-29T10:13:57;6;6;
60816;PMS5003;51921;51.518;-3.188;2023-05-29T10:16:22;5;5;
60816;PMS5003;51921;51.518;-3.188;2023-05-29T10:18:49;5;5;
60816;PMS5003;51921;51.518;-3.188;2023-05-29T10:21:13;6;5;
60816;PMS5003;51921;51.518;-3.188;2023-05-29T10:23:39;7;6;
60816;PMS5003;51921;51.518;-3.188;2023-05-29T10:26:06;5;5;
60816;PMS5003;51921;51.518;-3.188;2023-05-29T10:28:30;5;4;
60816;PMS5003;51921;51.518;-3.188;2023-05-29T10:30:56;5;5;
60816;PMS5003;51921;51.518;-3.188;2023-05-29T10:33:30;7;6;
60816;PMS5003;51921;51.518;-3.188;2023-05-29T10:35:47;5;5;
60816;PMS5003;51921;51.518;-3.188;2023-05-29T10:38:12;6;5;
60816;PMS5003;51921;51.518;-3.188;2023-05-29T10:40:37;6;6;
60816;PMS5003;51921;51.518;-3.188;2023-05-29T10:43:03;6;6;
60816;PMS5003;51921;51.518;-3.188;2023-05-29T10:47:54;6;5;
60816;PMS5003;51921;51.518;-3.188;2023-05-29T10:52:45;4;4;
60816;PMS5003;51921;51.518;-3.188;2023-05-29T10:55:10;4;4;
60816;PMS5003;51921;51.518;-3.188;2023-05-29T10:57:36;5;5;
60816;PMS5003;51921;51.518;-3.188;2023-05-29T11:00:03;5;5;
60816;PMS5003;51921;51.518;-3.188;2023-05-29T11:02:26;6;5;
60816;PMS5003;51921;51.518;-3.188;2023-05-29T11:09:43;6;5;
60816;PMS5003;51921;51.518;-3.188;2023-05-29T11:12:12;5;5;
60816;PMS5003;51921;51.518;-3.188;2023-05-29T11:16:59;5;5;
60816;PMS5003;51921;51.518;-3.188;2023-05-29T11:19:25;6;5;
60816;PMS5003;51921;51.518;-3.188;2023-05-29T11:21:53;4;4;
60816;PMS5003;51921;51.518;-3.188;2023-05-29T11:24:18;5;5;
60816;PMS5003;51921;51.518;-3.188;2023-05-29T11:26:41;4;4;
60816;PMS5003;51921;51.518;-3.188;2023-05-29T11:29:06;4;4;
60816;PMS5003;51921;51.518;-3.188;2023-05-29T11:31:33;4;4;
60816;PMS5003;51921;51.518;-3.188;2023-05-29T11:33:59;5;5;
60816;PMS5003;51921;51.518;-3.188;2023-05-29T11:36:23;4;4;
60816;PMS5003;51921;51.518;-3.188;2023-05-29T11:38:49;7;6;
60816;PMS5003;51921;51.518;-3.188;2023-05-29T11:41:14;5;5;
60816;PMS5003;51921;51.518;-3.188;2023-05-29T11:43:39;4;3;
60816;PMS5003;51921;51.518;-3.188;2023-05-29T11:48:30;4;3;
60816;PMS5003;51921;51.518;-3.188;2023-05-29T11:50:56;7;6;
60816;PMS5003;51921;51.518;-3.188;2023-05-29T11:53:21;7;6;
60816;PMS5003;51921;51.518;-3.188;2023-05-29T11:55:47;4;4;
60816;PMS5003;51921;51.518;-3.188;2023-05-29T11:58:12;6;5;
60816;PMS5003;51921;51.518;-3.188;2023-05-29T12:00:38;4;4;
60816;PMS5003;51921;51.518;-3.188;2023-05-29T12:03:03;4;3;
60816;PMS5003;51921;51.518;-3.188;2023-05-29T12:05:29;4;4;
60816;PMS5003;51921;51.518;-3.188;2023-05-29T12:07:54;4;4;
60816;PMS5003;51921;51.518;-3.188;2023-05-29T12:10:20;4;4;
60816;PMS5003;51921;51.518;-3.188;2023-05-29T12:12:49;6;5;
60816;PMS5003;51921;51.518;-3.188;2023-05-29T12:15:11;6;5;
60816;PMS5003;51921;51.518;-3.188;2023-05-29T12:17:36;6;6;
60816;PMS5003;51921;51.518;-3.188;2023-05-29T12:20:03;6;5;
60816;PMS5003;51921;51.518;-3.188;2023-05-29T12:22:32;4;4;
60816;PMS5003;51921;51.518;-3.188;2023-05-29T12:24:52;5;5;
60816;PMS5003;51921;51.518;-3.188;2023-05-29T12:27:18;8;5;
60816;PMS5003;51921;51.518;-3.188;2023-05-29T12:29:43;3;3;
60816;PMS5003;51921;51.518;-3.188;2023-05-29T12:32:09;6;5;
60816;PMS5003;51921;51.518;-3.188;2023-05-29T12:34:35;7;6;
60816;PMS5003;51921;51.518;-3.188;2023-05-29T12:37:03;5;5;
60816;PMS5003;51921;51.518;-3.188;2023-05-29T12:39:25;7;7;
60816;PMS5003;51921;51.518;-3.188;2023-05-29T12:41:53;5;4;
60816;PMS5003;51921;51.518;-3.188;2023-05-29T12:44:16;5;5;
60816;PMS5003;51921;51.518;-3.188;2023-05-29T12:46:42;4;4;
60816;PMS5003;51921;51.518;-3.188;2023-05-29T12:49:12;4;4;
60816;PMS5003;51921;51.518;-3.188;2023-05-29T12:51:32;6;5;
60816;PMS5003;51921;51.518;-3.188;2023-05-29T12:53:58;5;5;
60816;PMS5003;51921;51.518;-3.188;2023-05-29T12:56:23;5;5;
60816;PMS5003;51921;51.518;-3.188;2023-05-29T12:58:49;3;3;
60816;PMS5003;51921;51.518;-3.188;2023-05-29T13:01:14;5;5;
60816;PMS5003;51921;51.518;-3.188;2023-05-29T13:03:40;6;4;
60816;PMS5003;51921;51.518;-3.188;2023-05-29T13:06:06;5;5;
60816;PMS5003;51921;51.518;-3.188;2023-05-29T13:08:31;5;4;
60816;PMS5003;51921;51.518;-3.188;2023-05-29T13:10:56;5;5;
60816;PMS5003;51921;51.518;-3.188;2023-05-29T13:13:22;4;4;
60816;PMS5003;51921;51.518;-3.188;2023-05-29T13:15:47;6;5;
60816;PMS5003;51921;51.518;-3.188;2023-05-29T13:18:12;9;6;
60816;PMS5003;51921;51.518;-3.188;2023-05-29T13:20:38;5;5;
60816;PMS5003;51921;51.518;-3.188;2023-05-29T13:23:03;6;5;
60816;PMS5003;51921;51.518;-3.188;2023-05-29T13:25:29;9;7;
60816;PMS5003;51921;51.518;-3.188;2023-05-29T13:27:54;5;5;
60816;PMS5003;51921;51.518;-3.188;2023-05-29T13:30:20;7;7;
60816;PMS5003;51921;51.518;-3.188;2023-05-29T13:32:45;5;5;
60816;PMS5003;51921;51.518;-3.188;2023-05-29T13:35:11;5;3;
60816;PMS5003;51921;51.518;-3.188;2023-05-29T13:37:36;5;4;
60816;PMS5003;51921;51.518;-3.188;2023-05-29T13:40:02;5;5;
60816;PMS5003;51921;51.518;-3.188;2023-05-29T13:42:27;7;7;
60816;PMS5003;51921;51.518;-3.188;2023-05-29T13:44:52;6;6;
60816;PMS5003;51921;51.518;-3.188;2023-05-29T13:47:18;6;5;
60816;PMS5003;51921;51.518;-3.188;2023-05-29T13:49:43;4;4;
60816;PMS5003;51921;51.518;-3.188;2023-05-29T13:52:09;7;6;
60816;PMS5003;51921;51.518;-3.188;2023-05-29T13:54:34;5;5;
60816;PMS5003;51921;51.518;-3.188;2023-05-29T13:56:59;4;4;
60816;PMS5003;51921;51.518;-3.188;2023-05-29T13:59:25;6;5;
60816;PMS5003;51921;51.518;-3.188;2023-05-29T14:01:50;5;4;
60816;PMS5003;51921;51.518;-3.188;2023-05-29T14:04:16;5;5;
60816;PMS5003;51921;51.518;-3.188;2023-05-29T14:06:41;5;5;
60816;PMS5003;51921;51.518;-3.188;2023-05-29T14:09:07;5;4;
60816;PMS5003;51921;51.518;-3.188;2023-05-29T14:11:32;6;6;
60816;PMS5003;51921;51.518;-3.188;2023-05-29T14:13:58;3;3;
60816;PMS5003;51921;51.518;-3.188;2023-05-29T14:16:23;5;5;
60816;PMS5003;51921;51.518;-3.188;2023-05-29T14:18:48;6;6;
60816;PMS5003;51921;51.518;-3.188;2023-05-29T14:21:14;5;4;
60816;PMS5003;51921;51.518;-3.188;2023-05-29T14:23:39;3;3;
60816;PMS5003;51921;51.518;-3.188;2023-05-29T14:26:05;5;4;
60816;PMS5003;51921;51.518;-3.188;2023-05-29T14:28:30;6;6;
60816;PMS5003;51921;51.518;-3.188;2023-05-29T14:30:56;3;2;
60816;PMS5003;51921;51.518;-3.188;2023-05-29T14:33:21;5;5;
60816;PMS5003;51921;51.518;-3.188;2023-05-29T14:35:47;6;6;
60816;PMS5003;51921;51.518;-3.188;2023-05-29T14:38:12;5;4;
60816;PMS5003;51921;51.518;-3.188;2023-05-29T14:40:37;5;5;
60816;PMS5003;51921;51.518;-3.188;2023-05-29T14:43:03;5;5;
60816;PMS5003;51921;51.518;-3.188;2023-05-29T14:45:28;6;6;
60816;PMS5003;51921;51.518;-3.188;2023-05-29T14:47:54;5;5;
60816;PMS5003;51921;51.518;-3.188;2023-05-29T14:50:19;8;8;
60816;PMS5003;51921;51.518;-3.188;2023-05-29T14:52:45;5;5;
60816;PMS5003;51921;51.518;-3.188;2023-05-29T14:55:11;5;4;
60816;PMS5003;51921;51.518;-3.188;2023-05-29T14:57:36;4;4;
60816;PMS5003;51921;51.518;-3.188;2023-05-29T15:00:02;5;4;
60816;PMS5003;51921;51.518;-3.188;2023-05-29T15:02:27;5;5;
60816;PMS5003;51921;51.518;-3.188;2023-05-29T15:04:52;6;6;
60816;PMS5003;51921;51.518;-3.188;2023-05-29T15:07:18;4;4;
60816;PMS5003;51921;51.518;-3.188;2023-05-29T15:09:43;7;6;
60816;PMS5003;51921;51.518;-3.188;2023-05-29T15:12:09;3;3;
60816;PMS5003;51921;51.518;-3.188;2023-05-29T15:14:34;5;5;
60816;PMS5003;51921;51.518;-3.188;2023-05-29T15:17:00;6;6;
60816;PMS5003;51921;51.518;-3.188;2023-05-29T15:19:25;6;4;
60816;PMS5003;51921;51.518;-3.188;2023-05-29T15:21:50;5;5;
60816;PMS5003;51921;51.518;-3.188;2023-05-29T15:24:16;6;6;
60816;PMS5003;51921;51.518;-3.188;2023-05-29T15:26:41;5;5;
60816;PMS5003;51921;51.518;-3.188;2023-05-29T15:29:07;6;6;
60816;PMS5003;51921;51.518;-3.188;2023-05-29T15:31:32;7;5;
60816;PMS5003;51921;51.518;-3.188;2023-05-29T15:33:58;7;6;
60816;PMS5003;51921;51.518;-3.188;2023-05-29T15:36:23;7;6;
60816;PMS5003;51921;51.518;-3.188;2023-05-29T15:38:48;5;5;
60816;PMS5003;51921;51.518;-3.188;2023-05-29T15:41:14;10;9;
60816;PMS5003;51921;51.518;-3.188;2023-05-29T15:43:40;4;4;
60816;PMS5003;51921;51.518;-3.188;2023-05-29T15:46:05;7;6;
60816;PMS5003;51921;51.518;-3.188;2023-05-29T15:48:30;7;6;
60816;PMS5003;51921;51.518;-3.188;2023-05-29T15:50:55;6;6;
60816;PMS5003;51921;51.518;-3.188;2023-05-29T15:53:21;4;4;
60816;PMS5003;51921;51.518;-3.188;2023-05-29T15:55:46;4;4;
60816;PMS5003;51921;51.518;-3.188;2023-05-29T15:58:12;4;4;
60816;PMS5003;51921;51.518;-3.188;2023-05-29T16:00:37;6;5;
60816;PMS5003;51921;51.518;-3.188;2023-05-29T16:03:03;7;6;
60816;PMS5003;51921;51.518;-3.188;2023-05-29T16:05:28;5;5;
60816;PMS5003;51921;51.518;-3.188;2023-05-29T16:07:53;5;4;
60816;PMS5003;51921;51.518;-3.188;2023-05-29T16:10:19;7;5;
60816;PMS5003;51921;51.518;-3.188;2023-05-29T16:12:44;6;6;
60816;PMS5003;51921;51.518;-3.188;2023-05-29T16:15:10;5;5;
60816;PMS5003;51921;51.518;-3.188;2023-05-29T16:17:35;6;6;
60816;PMS5003;51921;51.518;-3.188;2023-05-29T16:20:00;6;5;
60816;PMS5003;51921;51.518;-3.188;2023-05-29T16:22:26;6;4;
60816;PMS5003;51921;51.518;-3.188;2023-05-29T16:24:51;8;6;
60816;PMS5003;51921;51.518;-3.188;2023-05-29T16:27:17;5;5;
60816;PMS5003;51921;51.518;-3.188;2023-05-29T16:29:42;7;6;
60816;PMS5003;51921;51.518;-3.188;2023-05-29T16:32:07;5;5;
60816;PMS5003;51921;51.518;-3.188;2023-05-29T16:34:33;7;7;